sensor_id;sensor_type;location;lat;lon;timestamp;pressure;altitude;pressure_sealevel;temperature;humidity
35676;BME280;21790;42.668;23.298;2022-12-18T00:03:02;95436.56;;;14.73;50.27
35676;BME280;21790;42.668;23.298;2022-12-18T00:11:15;95438.84;;;14.84;49.26
35676;BME280;21790;42.668;23.298;2022-12-18T00:13:44;95441.69;;;14.75;49.42
35676;BME280;21790;42.668;23.298;2022-12-18T00:16:12;95452.81;;;14.75;48.88
35676;BME280;21790;42.668;23.298;2022-12-18T00:46:28;95474.56;;;14.25;49.23
35676;BME280;21790;42.668;23.298;2022-12-18T00:52:15;95483.88;;;14.04;49.22
35676;BME280;21790;42.668;23.298;2022-12-18T01:03:42;95491.28;;;14.07;49.20
35676;BME280;21790;42.668;23.298;2022-12-18T01:18:07;95505.47;;;14.27;48.18
35676;BME280;21790;42.668;23.298;2022-12-18T01:26:15;95523.72;;;13.73;48.83
35676;BME280;21790;42.668;23.298;2022-12-18T02:09:28;95536.34;;;13.47;48.02
35676;BME280;21790;42.668;23.298;2022-12-18T03:07:13;95578.09;;;13.34;47.79
35676;BME280;21790;42.668;23.298;2022-12-18T03:10:20;95559.56;;;13.22;47.52
35676;BME280;21790;42.668;23.298;2022-12-18T03:52:58;95610.44;;;13.19;47.45
35676;BME280;21790;42.668;23.298;2022-12-18T07:53:18;95897.78;;;14.51;47.35
35676;BME280;21790;42.668;23.298;2022-12-18T08:08:15;95916.97;;;13.18;41.75
35676;BME280;21790;42.668;23.298;2022-12-18T08:11:04;95923.53;;;13.12;41.82
35676;BME280;21790;42.668;23.298;2022-12-18T08:16:58;95930.34;;;12.73;42.71
35676;BME280;21790;42.668;23.298;2022-12-18T08:19:24;95938.25;;;12.49;42.98
35676;BME280;21790;42.668;23.298;2022-12-18T08:21:55;95944.13;;;12.64;42.55
35676;BME280;21790;42.668;23.298;2022-12-18T08:24:33;95938.78;;;12.69;42.27
35676;BME280;21790;42.668;23.298;2022-12-18T08:27:04;95946.22;;;12.47;43.09
35676;BME280;21790;42.668;23.298;2022-12-18T08:29:32;95950.06;;;11.99;43.90
35676;BME280;21790;42.668;23.298;2022-12-18T08:32:02;95954.78;;;11.86;44.21
35676;BME280;21790;42.668;23.298;2022-12-18T08:34:28;95951.72;;;11.96;44.28
35676;BME280;21790;42.668;23.298;2022-12-18T08:36:54;95964.16;;;12.04;44.45
35676;BME280;21790;42.668;23.298;2022-12-18T08:39:21;95960.69;;;12.00;44.29
35676;BME280;21790;42.668;23.298;2022-12-18T08:41:49;95961.84;;;12.15;44.30
35676;BME280;21790;42.668;23.298;2022-12-18T08:44:34;95956.38;;;11.99;44.13
35676;BME280;21790;42.668;23.298;2022-12-18T08:47:06;95964.59;;;12.03;44.14
35676;BME280;21790;42.668;23.298;2022-12-18T08:49:40;95965.91;;;11.98;44.39
35676;BME280;21790;42.668;23.298;2022-12-18T08:52:13;95979.56;;;12.05;44.21
35676;BME280;21790;42.668;23.298;2022-12-18T08:54:40;95969.34;;;12.02;43.71
35676;BME280;21790;42.668;23.298;2022-12-18T08:57:06;95971.78;;;11.71;43.90
35676;BME280;21790;42.668;23.298;2022-12-18T08:59:31;95956.56;;;11.63;44.40
35676;BME280;21790;42.668;23.298;2022-12-18T09:01:57;95965.47;;;11.71;44.20
35676;BME280;21790;42.668;23.298;2022-12-18T09:04:22;95968.78;;;11.66;44.37
35676;BME280;21790;42.668;23.298;2022-12-18T09:06:48;95958.88;;;11.81;44.02
35676;BME280;21790;42.668;23.298;2022-12-18T09:09:13;95962.00;;;11.83;43.92
35676;BME280;21790;42.668;23.298;2022-12-18T09:11:41;95963.75;;;11.77;44.19
35676;BME280;21790;42.668;23.298;2022-12-18T09:14:08;95948.47;;;11.85;44.06
35676;BME280;21790;42.668;23.298;2022-12-18T09:16:34;95961.31;;;11.79;43.83
35676;BME280;21790;42.668;23.298;2022-12-18T09:19:01;95959.91;;;11.87;44.05
35676;BME280;21790;42.668;23.298;2022-12-18T09:21:30;95968.75;;;11.95;44.15
35676;BME280;21790;42.668;23.298;2022-12-18T09:24:00;95964.69;;;11.99;43.80
35676;BME280;21790;42.668;23.298;2022-12-18T09:26:28;95953.56;;;11.87;44.58
35676;BME280;21790;42.668;23.298;2022-12-18T09:28:53;95960.03;;;11.96;44.30
35676;BME280;21790;42.668;23.298;2022-12-18T09:31:21;95953.19;;;12.13;44.02
35676;BME280;21790;42.668;23.298;2022-12-18T09:33:47;95955.28;;;12.22;43.46
35676;BME280;21790;42.668;23.298;2022-12-18T09:36:14;95951.09;;;12.30;42.85
35676;BME280;21790;42.668;23.298;2022-12-18T09:39:13;95960.63;;;12.29;43.15
35676;BME280;21790;42.668;23.298;2022-12-18T09:47:42;95954.09;;;12.36;42.45
35676;BME280;21790;42.668;23.298;2022-12-18T10:18:50;95958.97;;;12.57;41.78
35676;BME280;21790;42.668;23.298;2022-12-18T10:41:52;95931.03;;;12.39;41.24
35676;BME280;21790;42.668;23.298;2022-12-18T10:48:31;95942.03;;;12.42;40.72
35676;BME280;21790;42.668;23.298;2022-12-18T10:51:42;95930.81;;;12.21;41.59
35676;BME280;21790;42.668;23.298;2022-12-18T10:54:52;95967.38;;;12.28;41.56
35676;BME280;21790;42.668;23.298;2022-12-18T11:21:07;95940.69;;;11.80;43.37
35676;BME280;21790;42.668;23.298;2022-12-18T11:23:34;95945.50;;;13.19;53.03
35676;BME280;21790;42.668;23.298;2022-12-18T11:29:50;95966.03;;;14.21;37.92
35676;BME280;21790;42.668;23.298;2022-12-18T11:32:37;95968.03;;;13.55;38.13
35676;BME280;21790;42.668;23.298;2022-12-18T11:38:37;95965.03;;;13.15;39.18
35676;BME280;21790;42.668;23.298;2022-12-18T11:44:32;95971.50;;;12.62;39.12
35676;BME280;21790;42.668;23.298;2022-12-18T11:50:56;95967.53;;;12.75;38.68
35676;BME280;21790;42.668;23.298;2022-12-18T11:53:40;95962.97;;;12.56;38.83
35676;BME280;21790;42.668;23.298;2022-12-18T12:09:18;95943.91;;;12.33;40.00
35676;BME280;21790;42.668;23.298;2022-12-18T12:21:06;95966.63;;;12.40;40.04
35676;BME280;21790;42.668;23.298;2022-12-18T12:23:52;95959.16;;;12.12;40.13
35676;BME280;21790;42.668;23.298;2022-12-18T12:29:36;95965.84;;;12.27;39.57
35676;BME280;21790;42.668;23.298;2022-12-18T12:42:47;95978.63;;;12.37;40.37
35676;BME280;21790;42.668;23.298;2022-12-18T12:48:07;95969.06;;;12.38;40.14
35676;BME280;21790;42.668;23.298;2022-12-18T12:50:37;95972.41;;;12.46;40.25
35676;BME280;21790;42.668;23.298;2022-12-18T12:53:07;95971.63;;;12.58;40.29
35676;BME280;21790;42.668;23.298;2022-12-18T12:55:34;95970.97;;;12.41;40.77
35676;BME280;21790;42.668;23.298;2022-12-18T13:06:17;95981.59;;;12.30;40.95
35676;BME280;21790;42.668;23.298;2022-12-18T13:08:57;95980.06;;;12.42;41.07
35676;BME280;21790;42.668;23.298;2022-12-18T13:11:39;95989.69;;;12.50;40.84
35676;BME280;21790;42.668;23.298;2022-12-18T13:14:30;95992.34;;;12.41;40.99
35676;BME280;21790;42.668;23.298;2022-12-18T13:17:15;95999.69;;;12.60;40.10
35676;BME280;21790;42.668;23.298;2022-12-18T13:19:42;95994.22;;;12.44;40.45
35676;BME280;21790;42.668;23.298;2022-12-18T13:22:31;96004.94;;;12.71;39.94
35676;BME280;21790;42.668;23.298;2022-12-18T13:24:59;95999.38;;;12.58;40.35
35676;BME280;21790;42.668;23.298;2022-12-18T13:38:34;96004.56;;;13.66;38.54
35676;BME280;21790;42.668;23.298;2022-12-18T13:41:10;96003.00;;;13.31;38.95
35676;BME280;21790;42.668;23.298;2022-12-18T13:43:48;96003.13;;;13.02;39.57
35676;BME280;21790;42.668;23.298;2022-12-18T13:46:30;96008.59;;;12.80;40.11
35676;BME280;21790;42.668;23.298;2022-12-18T13:49:05;96017.69;;;12.81;39.89
35676;BME280;21790;42.668;23.298;2022-12-18T13:51:49;96022.09;;;12.66;40.04
35676;BME280;21790;42.668;23.298;2022-12-18T13:54:22;96013.91;;;12.75;40.02
35676;BME280;21790;42.668;23.298;2022-12-18T13:56:49;96028.50;;;12.50;40.09
35676;BME280;21790;42.668;23.298;2022-12-18T13:59:23;96032.41;;;12.52;40.45
35676;BME280;21790;42.668;23.298;2022-12-18T14:01:59;96033.03;;;12.44;40.30
35676;BME280;21790;42.668;23.298;2022-12-18T14:04:33;96034.06;;;12.50;40.12
35676;BME280;21790;42.668;23.298;2022-12-18T14:07:06;96028.75;;;12.43;40.20
35676;BME280;21790;42.668;23.298;2022-12-18T14:09:54;96033.16;;;12.40;40.21
35676;BME280;21790;42.668;23.298;2022-12-18T14:12:26;96041.72;;;12.46;39.63
35676;BME280;21790;42.668;23.298;2022-12-18T14:15:35;96030.50;;;12.49;39.59
35676;BME280;21790;42.668;23.298;2022-12-18T14:18:22;96047.72;;;12.57;39.33
35676;BME280;21790;42.668;23.298;2022-12-18T14:20:57;96048.03;;;12.46;39.25
35676;BME280;21790;42.668;23.298;2022-12-18T14:23:29;96052.56;;;12.40;39.71
35676;BME280;21790;42.668;23.298;2022-12-18T14:25:56;96057.94;;;12.19;39.35
35676;BME280;21790;42.668;23.298;2022-12-18T14:28:21;96054.88;;;12.00;39.31
35676;BME280;21790;42.668;23.298;2022-12-18T14:30:48;96056.94;;;12.12;39.09
35676;BME280;21790;42.668;23.298;2022-12-18T14:33:19;96052.94;;;12.13;39.13
35676;BME280;21790;42.668;23.298;2022-12-18T14:36:00;96053.19;;;12.19;38.93
35676;BME280;21790;42.668;23.298;2022-12-18T14:38:31;96054.81;;;12.04;39.28
35676;BME280;21790;42.668;23.298;2022-12-18T14:41:01;96050.94;;;11.85;39.71
35676;BME280;21790;42.668;23.298;2022-12-18T14:43:29;96029.03;;;11.91;39.80
35676;BME280;21790;42.668;23.298;2022-12-18T14:45:55;96044.59;;;12.01;39.36
35676;BME280;21790;42.668;23.298;2022-12-18T14:51:20;96043.69;;;12.33;38.82
35676;BME280;21790;42.668;23.298;2022-12-18T14:54:05;96045.22;;;12.34;38.88
35676;BME280;21790;42.668;23.298;2022-12-18T14:56:47;96053.06;;;12.23;38.71
35676;BME280;21790;42.668;23.298;2022-12-18T14:59:16;96053.06;;;12.10;38.91
35676;BME280;21790;42.668;23.298;2022-12-18T15:01:45;96052.72;;;12.08;38.93
35676;BME280;21790;42.668;23.298;2022-12-18T15:04:39;96051.63;;;11.89;39.42
35676;BME280;21790;42.668;23.298;2022-12-18T15:07:20;96053.44;;;11.96;39.16
35676;BME280;21790;42.668;23.298;2022-12-18T15:12:37;96062.81;;;11.86;39.53
35676;BME280;21790;42.668;23.298;2022-12-18T15:15:04;96054.63;;;11.66;40.00
35676;BME280;21790;42.668;23.298;2022-12-18T15:17:30;96069.56;;;11.85;39.41
35676;BME280;21790;42.668;23.298;2022-12-18T15:20:02;96067.88;;;12.03;39.08
35676;BME280;21790;42.668;23.298;2022-12-18T15:22:30;96075.34;;;11.90;39.29
35676;BME280;21790;42.668;23.298;2022-12-18T15:24:59;96074.81;;;11.95;39.50
35676;BME280;21790;42.668;23.298;2022-12-18T15:27:33;96077.06;;;12.00;39.09
35676;BME280;21790;42.668;23.298;2022-12-18T15:32:36;96087.84;;;11.82;38.50
35676;BME280;21790;42.668;23.298;2022-12-18T15:35:17;96079.31;;;11.89;37.82
35676;BME280;21790;42.668;23.298;2022-12-18T15:37:43;96090.63;;;11.66;37.99
35676;BME280;21790;42.668;23.298;2022-12-18T15:40:17;96094.75;;;11.90;38.21
35676;BME280;21790;42.668;23.298;2022-12-18T15:42:44;96091.41;;;11.83;38.07
35676;BME280;21790;42.668;23.298;2022-12-18T15:45:28;96107.56;;;11.68;38.38
35676;BME280;21790;42.668;23.298;2022-12-18T15:47:54;96107.31;;;11.79;38.03
35676;BME280;21790;42.668;23.298;2022-12-18T15:50:20;96108.63;;;11.74;38.59
35676;BME280;21790;42.668;23.298;2022-12-18T15:52:47;96109.13;;;11.69;38.63
35676;BME280;21790;42.668;23.298;2022-12-18T15:55:20;96111.63;;;11.80;38.20
35676;BME280;21790;42.668;23.298;2022-12-18T15:58:06;96122.72;;;11.63;38.52
35676;BME280;21790;42.668;23.298;2022-12-18T16:00:34;96118.63;;;11.84;38.10
35676;BME280;21790;42.668;23.298;2022-12-18T16:03:00;96119.88;;;11.83;38.13
35676;BME280;21790;42.668;23.298;2022-12-18T16:05:27;96134.41;;;11.71;38.09
35676;BME280;21790;42.668;23.298;2022-12-18T16:07:53;96145.81;;;11.73;37.72
35676;BME280;21790;42.668;23.298;2022-12-18T16:10:19;96141.06;;;11.73;37.56
35676;BME280;21790;42.668;23.298;2022-12-18T16:12:45;96128.75;;;11.58;37.74
35676;BME280;21790;42.668;23.298;2022-12-18T16:15:13;96142.19;;;11.60;37.48
35676;BME280;21790;42.668;23.298;2022-12-18T16:17:44;96140.44;;;11.33;37.95
35676;BME280;21790;42.668;23.298;2022-12-18T16:20:18;96138.63;;;11.43;38.18
35676;BME280;21790;42.668;23.298;2022-12-18T16:22:46;96137.50;;;11.41;38.29
35676;BME280;21790;42.668;23.298;2022-12-18T16:25:24;96123.66;;;11.41;37.96
35676;BME280;21790;42.668;23.298;2022-12-18T16:27:50;96135.97;;;11.23;38.24
35676;BME280;21790;42.668;23.298;2022-12-18T16:30:19;96133.25;;;11.36;38.26
35676;BME280;21790;42.668;23.298;2022-12-18T16:32:45;96136.69;;;11.24;38.26
35676;BME280;21790;42.668;23.298;2022-12-18T16:35:15;96148.75;;;11.50;37.74
35676;BME280;21790;42.668;23.298;2022-12-18T16:37:42;96158.25;;;11.32;38.11
35676;BME280;21790;42.668;23.298;2022-12-18T16:40:11;96146.16;;;11.43;38.31
35676;BME280;21790;42.668;23.298;2022-12-18T16:42:37;96156.34;;;11.29;38.67
35676;BME280;21790;42.668;23.298;2022-12-18T16:45:05;96158.38;;;11.45;38.21
35676;BME280;21790;42.668;23.298;2022-12-18T16:47:32;96166.75;;;11.42;38.35
35676;BME280;21790;42.668;23.298;2022-12-18T16:49:57;96169.59;;;11.38;38.45
35676;BME280;21790;42.668;23.298;2022-12-18T16:52:23;96178.19;;;11.44;38.36
35676;BME280;21790;42.668;23.298;2022-12-18T16:54:48;96177.22;;;11.34;38.47
35676;BME280;21790;42.668;23.298;2022-12-18T16:57:16;96173.84;;;11.43;38.55
35676;BME280;21790;42.668;23.298;2022-12-18T16:59:42;96190.09;;;11.41;37.98
35676;BME280;21790;42.668;23.298;2022-12-18T17:02:17;96190.56;;;11.55;37.96
35676;BME280;21790;42.668;23.298;2022-12-18T17:04:44;96189.41;;;11.37;38.12
35676;BME280;21790;42.668;23.298;2022-12-18T17:07:09;96187.28;;;11.24;38.31
35676;BME280;21790;42.668;23.298;2022-12-18T17:09:35;96200.63;;;11.29;38.76
35676;BME280;21790;42.668;23.298;2022-12-18T17:12:01;96216.13;;;11.27;38.76
35676;BME280;21790;42.668;23.298;2022-12-18T17:14:27;96222.63;;;11.01;38.96
35676;BME280;21790;42.668;23.298;2022-12-18T17:16:53;96227.06;;;11.14;38.47
35676;BME280;21790;42.668;23.298;2022-12-18T17:19:19;96215.84;;;11.21;38.29
35676;BME280;21790;42.668;23.298;2022-12-18T17:21:47;96223.41;;;11.37;38.50
35676;BME280;21790;42.668;23.298;2022-12-18T17:24:14;96228.00;;;11.44;38.49
35676;BME280;21790;42.668;23.298;2022-12-18T17:26:40;96224.19;;;11.38;38.18
35676;BME280;21790;42.668;23.298;2022-12-18T17:29:06;96229.72;;;11.38;37.96
35676;BME280;21790;42.668;23.298;2022-12-18T17:31:32;96235.84;;;11.29;37.82
35676;BME280;21790;42.668;23.298;2022-12-18T17:33:57;96238.03;;;11.38;37.65
35676;BME280;21790;42.668;23.298;2022-12-18T17:36:24;96236.03;;;11.38;37.81
35676;BME280;21790;42.668;23.298;2022-12-18T17:38:54;96235.56;;;11.23;38.03
35676;BME280;21790;42.668;23.298;2022-12-18T17:41:21;96239.53;;;11.22;38.17
35676;BME280;21790;42.668;23.298;2022-12-18T17:44:00;96228.66;;;11.31;38.20
35676;BME280;21790;42.668;23.298;2022-12-18T17:46:27;96225.56;;;11.10;38.61
35676;BME280;21790;42.668;23.298;2022-12-18T17:48:57;96223.34;;;11.21;38.68
35676;BME280;21790;42.668;23.298;2022-12-18T17:51:23;96228.06;;;11.04;39.12
35676;BME280;21790;42.668;23.298;2022-12-18T17:53:49;96221.97;;;10.93;39.37
35676;BME280;21790;42.668;23.298;2022-12-18T17:56:16;96224.94;;;11.02;39.21
35676;BME280;21790;42.668;23.298;2022-12-18T17:58:43;96219.50;;;10.99;39.23
35676;BME280;21790;42.668;23.298;2022-12-18T18:01:11;96223.59;;;11.10;39.13
35676;BME280;21790;42.668;23.298;2022-12-18T18:03:37;96227.38;;;11.00;39.06
35676;BME280;21790;42.668;23.298;2022-12-18T18:06:03;96227.00;;;10.98;39.12
35676;BME280;21790;42.668;23.298;2022-12-18T18:08:29;96220.28;;;10.99;38.82
35676;BME280;21790;42.668;23.298;2022-12-18T18:10:56;96220.28;;;10.99;39.34
35676;BME280;21790;42.668;23.298;2022-12-18T18:13:42;96224.94;;;11.02;38.65
35676;BME280;21790;42.668;23.298;2022-12-18T18:16:28;96229.63;;;11.05;38.75
35676;BME280;21790;42.668;23.298;2022-12-18T18:18:56;96225.94;;;10.92;38.96
35676;BME280;21790;42.668;23.298;2022-12-18T18:21:22;96235.31;;;10.78;38.91
35676;BME280;21790;42.668;23.298;2022-12-18T18:23:47;96237.00;;;10.92;38.64
35676;BME280;21790;42.668;23.298;2022-12-18T18:26:14;96229.44;;;10.96;38.70
35676;BME280;21790;42.668;23.298;2022-12-18T18:28:39;96234.25;;;10.92;38.47
35676;BME280;21790;42.668;23.298;2022-12-18T18:31:06;96234.41;;;10.85;38.47
35676;BME280;21790;42.668;23.298;2022-12-18T18:33:32;96243.09;;;11.03;38.29
35676;BME280;21790;42.668;23.298;2022-12-18T18:35:58;96244.59;;;10.88;38.32
35676;BME280;21790;42.668;23.298;2022-12-18T18:38:23;96248.91;;;11.09;37.57
35676;BME280;21790;42.668;23.298;2022-12-18T18:41:00;96256.75;;;11.30;37.69
35676;BME280;21790;42.668;23.298;2022-12-18T18:43:27;96244.66;;;11.04;37.86
35676;BME280;21790;42.668;23.298;2022-12-18T18:45:57;96249.09;;;11.02;37.53
35676;BME280;21790;42.668;23.298;2022-12-18T18:48:24;96256.44;;;11.08;37.44
35676;BME280;21790;42.668;23.298;2022-12-18T18:51:01;96264.59;;;11.15;37.85
35676;BME280;21790;42.668;23.298;2022-12-18T18:53:28;96264.03;;;11.04;37.59
35676;BME280;21790;42.668;23.298;2022-12-18T18:55:56;96265.66;;;11.21;37.68
35676;BME280;21790;42.668;23.298;2022-12-18T18:58:22;96268.66;;;11.11;37.79
35676;BME280;21790;42.668;23.298;2022-12-18T19:01:00;96261.47;;;11.13;37.62
35676;BME280;21790;42.668;23.298;2022-12-18T19:03:26;96262.41;;;10.87;38.27
35676;BME280;21790;42.668;23.298;2022-12-18T19:05:56;96275.59;;;10.99;38.09
35676;BME280;21790;42.668;23.298;2022-12-18T19:08:29;96280.22;;;11.06;37.84
35676;BME280;21790;42.668;23.298;2022-12-18T19:10:56;96281.63;;;10.94;37.86
35676;BME280;21790;42.668;23.298;2022-12-18T19:13:23;96284.59;;;10.83;37.87
35676;BME280;21790;42.668;23.298;2022-12-18T19:15:55;96284.19;;;10.85;38.13
35676;BME280;21790;42.668;23.298;2022-12-18T19:18:26;96285.63;;;10.70;38.10
35676;BME280;21790;42.668;23.298;2022-12-18T19:21:00;96294.38;;;10.68;38.77
35676;BME280;21790;42.668;23.298;2022-12-18T19:23:26;96294.88;;;10.63;38.94
35676;BME280;21790;42.668;23.298;2022-12-18T19:25:52;96283.72;;;10.67;38.61
35676;BME280;21790;42.668;23.298;2022-12-18T19:28:18;96290.09;;;10.64;39.13
35676;BME280;21790;42.668;23.298;2022-12-18T19:30:45;96284.53;;;10.87;38.30
35676;BME280;21790;42.668;23.298;2022-12-18T19:33:10;96287.50;;;10.76;38.09
35676;BME280;21790;42.668;23.298;2022-12-18T19:35:36;96301.81;;;10.71;37.92
35676;BME280;21790;42.668;23.298;2022-12-18T19:38:01;96297.47;;;10.51;38.42
35676;BME280;21790;42.668;23.298;2022-12-18T19:40:27;96297.81;;;10.53;38.69
35676;BME280;21790;42.668;23.298;2022-12-18T19:42:52;96297.03;;;10.52;38.86
35676;BME280;21790;42.668;23.298;2022-12-18T19:45:18;96311.69;;;10.49;39.05
35676;BME280;21790;42.668;23.298;2022-12-18T19:47:44;96315.25;;;10.49;38.78
35676;BME280;21790;42.668;23.298;2022-12-18T19:50:10;96322.16;;;10.38;38.83
35676;BME280;21790;42.668;23.298;2022-12-18T19:52:35;96324.88;;;10.41;38.87
35676;BME280;21790;42.668;23.298;2022-12-18T19:55:01;96323.38;;;10.10;39.29
35676;BME280;21790;42.668;23.298;2022-12-18T19:57:26;96332.56;;;10.03;39.52
35676;BME280;21790;42.668;23.298;2022-12-18T19:59:52;96322.50;;;10.17;39.18
35676;BME280;21790;42.668;23.298;2022-12-18T20:02:17;96334.72;;;10.19;38.97
35676;BME280;21790;42.668;23.298;2022-12-18T20:04:45;96327.06;;;10.27;38.89
35676;BME280;21790;42.668;23.298;2022-12-18T20:07:10;96322.94;;;10.12;39.31
35676;BME280;21790;42.668;23.298;2022-12-18T20:09:36;96342.38;;;10.31;39.09
35676;BME280;21790;42.668;23.298;2022-12-18T20:12:02;96340.59;;;10.44;38.62
35676;BME280;21790;42.668;23.298;2022-12-18T20:14:28;96346.97;;;10.41;38.95
35676;BME280;21790;42.668;23.298;2022-12-18T20:16:53;96334.88;;;10.32;38.70
35676;BME280;21790;42.668;23.298;2022-12-18T20:19:19;96325.94;;;10.24;39.14
35676;BME280;21790;42.668;23.298;2022-12-18T20:21:45;96332.66;;;10.23;38.99
35676;BME280;21790;42.668;23.298;2022-12-18T20:24:11;96339.81;;;10.21;39.03
35676;BME280;21790;42.668;23.298;2022-12-18T20:26:37;96342.09;;;9.99;39.40
35676;BME280;21790;42.668;23.298;2022-12-18T20:29:03;96352.09;;;9.89;39.28
35676;BME280;21790;42.668;23.298;2022-12-18T20:31:29;96349.75;;;9.88;39.54
35676;BME280;21790;42.668;23.298;2022-12-18T20:33:57;96354.66;;;10.03;39.47
35676;BME280;21790;42.668;23.298;2022-12-18T20:36:23;96361.88;;;9.94;39.55
35676;BME280;21790;42.668;23.298;2022-12-18T20:38:49;96364.16;;;10.02;39.48
35676;BME280;21790;42.668;23.298;2022-12-18T20:41:17;96370.47;;;9.99;39.22
35676;BME280;21790;42.668;23.298;2022-12-18T20:43:46;96380.03;;;9.95;39.39
35676;BME280;21790;42.668;23.298;2022-12-18T20:46:14;96373.38;;;9.92;40.07
35676;BME280;21790;42.668;23.298;2022-12-18T20:48:40;96388.84;;;9.86;39.46
35676;BME280;21790;42.668;23.298;2022-12-18T20:51:09;96392.69;;;9.92;39.83
35676;BME280;21790;42.668;23.298;2022-12-18T20:53:35;96394.31;;;9.90;39.67
35676;BME280;21790;42.668;23.298;2022-12-18T20:56:05;96386.91;;;9.83;39.56
35676;BME280;21790;42.668;23.298;2022-12-18T20:58:31;96397.09;;;9.59;39.80
35676;BME280;21790;42.668;23.298;2022-12-18T21:01:08;96394.91;;;9.74;39.80
35676;BME280;21790;42.668;23.298;2022-12-18T21:03:38;96388.59;;;9.74;39.87
35676;BME280;21790;42.668;23.298;2022-12-18T21:06:04;96383.59;;;9.65;39.61
35676;BME280;21790;42.668;23.298;2022-12-18T21:08:30;96386.41;;;9.61;39.47
35676;BME280;21790;42.668;23.298;2022-12-18T21:14:02;96391.69;;;9.79;39.78
35676;BME280;21790;42.668;23.298;2022-12-18T21:16:29;96397.63;;;9.78;39.14
35676;BME280;21790;42.668;23.298;2022-12-18T21:18:54;96378.03;;;9.69;39.58
35676;BME280;21790;42.668;23.298;2022-12-18T21:21:20;96388.03;;;9.55;39.45
35676;BME280;21790;42.668;23.298;2022-12-18T21:23:46;96387.50;;;9.68;39.93
35676;BME280;21790;42.668;23.298;2022-12-18T21:26:26;96381.50;;;9.73;39.97
35676;BME280;21790;42.668;23.298;2022-12-18T21:28:58;96386.53;;;9.81;39.73
35676;BME280;21790;42.668;23.298;2022-12-18T21:31:27;96381.38;;;9.83;39.35
35676;BME280;21790;42.668;23.298;2022-12-18T21:33:55;96377.94;;;9.76;39.24
35676;BME280;21790;42.668;23.298;2022-12-18T21:36:21;96383.16;;;9.66;39.52
35676;BME280;21790;42.668;23.298;2022-12-18T21:38:46;96392.03;;;9.54;39.38
35676;BME280;21790;42.668;23.298;2022-12-18T21:41:12;96380.16;;;9.57;39.39
35676;BME280;21790;42.668;23.298;2022-12-18T21:43:57;96390.41;;;9.57;40.15
35676;BME280;21790;42.668;23.298;2022-12-18T21:46:43;96388.28;;;9.68;39.56
35676;BME280;21790;42.668;23.298;2022-12-18T21:49:12;96388.63;;;9.40;40.36
35676;BME280;21790;42.668;23.298;2022-12-18T21:51:39;96384.38;;;9.35;39.71
35676;BME280;21790;42.668;23.298;2022-12-18T21:54:04;96384.28;;;9.08;40.01
35676;BME280;21790;42.668;23.298;2022-12-18T21:56:50;96386.50;;;9.20;40.44
35676;BME280;21790;42.668;23.298;2022-12-18T21:59:22;96387.25;;;9.24;40.57
35676;BME280;21790;42.668;23.298;2022-12-18T22:01:51;96394.25;;;8.99;40.66
35676;BME280;21790;42.668;23.298;2022-12-18T22:04:17;96385.06;;;9.09;40.06
35676;BME280;21790;42.668;23.298;2022-12-18T22:06:43;96397.38;;;9.35;39.66
35676;BME280;21790;42.668;23.298;2022-12-18T22:09:12;96397.91;;;9.22;40.67
35676;BME280;21790;42.668;23.298;2022-12-18T22:11:38;96395.59;;;9.17;40.33
35676;BME280;21790;42.668;23.298;2022-12-18T22:14:04;96395.44;;;9.32;40.13
35676;BME280;21790;42.668;23.298;2022-12-18T22:16:29;96401.44;;;9.23;39.73
35676;BME280;21790;42.668;23.298;2022-12-18T22:18:55;96408.53;;;9.24;39.90
35676;BME280;21790;42.668;23.298;2022-12-18T22:26:20;96393.81;;;9.00;40.47
35676;BME280;21790;42.668;23.298;2022-12-18T22:28:46;96392.28;;;8.96;40.20
35676;BME280;21790;42.668;23.298;2022-12-18T22:31:30;96386.00;;;8.95;40.71
35676;BME280;21790;42.668;23.298;2022-12-18T22:33:55;96388.97;;;9.11;40.04
35676;BME280;21790;42.668;23.298;2022-12-18T22:36:20;96380.28;;;9.13;39.57
35676;BME280;21790;42.668;23.298;2022-12-18T22:38:46;96382.59;;;9.18;39.78
35676;BME280;21790;42.668;23.298;2022-12-18T22:41:12;96381.13;;;9.06;40.07
35676;BME280;21790;42.668;23.298;2022-12-18T22:43:38;96374.84;;;9.06;40.30
35676;BME280;21790;42.668;23.298;2022-12-18T22:46:03;96376.41;;;9.07;40.51
35676;BME280;21790;42.668;23.298;2022-12-18T22:48:29;96374.78;;;9.13;40.03
35676;BME280;21790;42.668;23.298;2022-12-18T22:50:54;96372.06;;;9.09;40.47
35676;BME280;21790;42.668;23.298;2022-12-18T22:53:20;96352.03;;;9.02;40.39
35676;BME280;21790;42.668;23.298;2022-12-18T22:55:45;96364.19;;;9.08;39.70
35676;BME280;21790;42.668;23.298;2022-12-18T22:58:11;96360.97;;;9.13;39.93
35676;BME280;21790;42.668;23.298;2022-12-18T23:00:36;96364.56;;;9.10;40.06
35676;BME280;21790;42.668;23.298;2022-12-18T23:03:01;96361.38;;;9.11;40.43
35676;BME280;21790;42.668;23.298;2022-12-18T23:05:30;96365.25;;;9.17;40.30
35676;BME280;21790;42.668;23.298;2022-12-18T23:07:56;96376.00;;;9.08;40.03
35676;BME280;21790;42.668;23.298;2022-12-18T23:10:23;96372.59;;;8.97;40.52
35676;BME280;21790;42.668;23.298;2022-12-18T23:12:48;96377.97;;;9.08;40.21
35676;BME280;21790;42.668;23.298;2022-12-18T23:15:13;96375.63;;;9.06;40.03
35676;BME280;21790;42.668;23.298;2022-12-18T23:17:39;96386.63;;;9.10;40.00
35676;BME280;21790;42.668;23.298;2022-12-18T23:20:05;96378.25;;;9.17;39.88
35676;BME280;21790;42.668;23.298;2022-12-18T23:22:30;96382.25;;;9.12;40.34
35676;BME280;21790;42.668;23.298;2022-12-18T23:24:56;96386.78;;;8.96;40.48
35676;BME280;21790;42.668;23.298;2022-12-18T23:27:21;96387.63;;;8.89;41.02
35676;BME280;21790;42.668;23.298;2022-12-18T23:29:46;96389.91;;;8.98;40.37
35676;BME280;21790;42.668;23.298;2022-12-18T23:32:12;96381.31;;;8.92;40.75
35676;BME280;21790;42.668;23.298;2022-12-18T23:34:37;96382.94;;;8.86;40.79